createdAt,value
2018-09-24T00:00:52.055Z,19.05
2018-09-24T00:15:50.434Z,19.73
2018-09-24T00:30:50.446Z,19.05
2018-09-24T00:45:51.078Z,19.48
2018-09-24T01:00:50.844Z,20.55
2018-09-24T01:15:52.833Z,20.20
2018-09-24T01:30:52.183Z,19.23
2018-09-24T01:45:51.177Z,19.65
2018-09-24T02:00:50.054Z,19.30
2018-09-24T02:15:52.086Z,17.98
2018-09-24T02:30:50.183Z,18.65
2018-09-24T02:45:50.244Z,19.37
2018-09-24T03:00:50.793Z,19.15
2018-09-24T03:15:59.164Z,20.70
2018-09-24T03:30:50.995Z,21.17
2018-09-24T03:45:50.575Z,20.35
2018-09-24T04:00:51.468Z,20.92
2018-09-24T04:15:55.937Z,21.33
2018-09-24T04:30:56.211Z,23.12
2018-09-24T04:45:55.970Z,22.87
2018-09-24T05:00:56.505Z,23.65
2018-09-24T05:30:56.611Z,22.80
2018-09-24T05:45:56.495Z,24.77
2018-09-24T06:00:55.757Z,23.20
2018-09-24T06:15:55.861Z,24.75
2018-09-24T06:30:56.311Z,25.30
2018-09-24T06:45:55.865Z,23.30
2018-09-24T07:00:58.059Z,24.70
2018-09-24T07:15:56.193Z,24.52
2018-09-24T07:30:56.005Z,25.10
2018-09-24T07:45:56.051Z,22.57
2018-09-24T08:00:56.524Z,22.10
2018-09-24T08:15:56.437Z,19.57
2018-09-24T08:31:00.308Z,21.63
2018-09-24T08:45:56.597Z,20.13
2018-09-24T09:00:55.724Z,19.57
2018-09-24T09:15:55.713Z,18.10
2018-09-24T09:30:55.847Z,16.97
2018-09-24T09:45:55.849Z,17.03
2018-09-24T10:00:56.263Z,13.23
2018-09-24T10:15:56.095Z,10.50
2018-09-24T10:30:56.100Z,8.30
2018-09-24T10:45:56.458Z,11.40
2018-09-24T11:15:56.493Z,13.87
2018-09-24T11:30:57.001Z,10.67
2018-09-24T11:45:56.372Z,9.23
2018-09-24T12:00:58.263Z,14.43
2018-09-24T12:15:55.808Z,16.20
2018-09-24T12:30:55.710Z,16.70
2018-09-24T12:45:56.040Z,13.78
2018-09-24T13:00:56.159Z,11.83
2018-09-24T13:15:56.304Z,10.58
2018-09-24T13:30:56.388Z,6.05
2018-09-24T13:45:56.157Z,4.65
2018-09-24T14:00:56.445Z,3.20
2018-09-24T14:15:55.712Z,2.62
2018-09-24T14:30:56.678Z,9.43
2018-09-24T14:45:58.720Z,2.20
2018-09-24T15:00:57.800Z,2.10
2018-09-24T15:15:54.776Z,2.25
2018-09-24T15:30:54.993Z,2.58
2018-09-24T15:45:54.730Z,3.33
2018-09-24T16:00:55.289Z,2.92
2018-09-24T16:15:57.185Z,3.92
2018-09-24T16:30:56.164Z,3.37
2018-09-24T16:45:56.187Z,5.28
2018-09-24T17:00:57.453Z,2.52
2018-09-24T17:15:56.511Z,2.40
2018-09-24T17:45:56.650Z,3.42
2018-09-24T18:00:55.922Z,4.00
2018-09-24T18:15:55.946Z,7.53
2018-09-24T18:30:55.905Z,7.80
2018-09-24T18:45:55.717Z,6.45
2018-09-24T19:00:58.218Z,6.95
2018-09-24T19:15:58.174Z,6.03
2018-09-24T19:30:57.703Z,6.95
2018-09-24T19:45:56.248Z,8.60
2018-09-24T20:00:56.492Z,5.80
2018-09-24T20:15:56.534Z,8.10
2018-09-24T20:30:58.725Z,4.10
2018-09-24T20:45:56.503Z,2.70
2018-09-24T21:00:55.837Z,3.00
2018-09-24T21:15:55.835Z,1.40
2018-09-24T21:30:55.827Z,1.72
2018-09-24T21:45:55.872Z,2.00
2018-09-24T22:00:58.193Z,2.30
2018-09-24T22:15:57.255Z,1.80
2018-09-24T22:30:58.454Z,2.50
2018-09-24T22:45:55.990Z,2.70
2018-09-24T23:00:56.377Z,3.83
2018-09-24T23:15:56.434Z,4.10
2018-09-24T23:30:56.491Z,4.10
2018-09-24T23:45:56.422Z,4.33
